sensor_id;sensor_type;location;lat;lon;timestamp;pressure;altitude;pressure_sealevel;temperature;humidity
13968;BME280;39536;52.198;9.920;2023-06-14T00:00:31;100760.47;;;19.72;61.62
13968;BME280;39536;52.198;9.920;2023-06-14T00:02:59;100756.09;;;19.71;61.36
13968;BME280;39536;52.198;9.920;2023-06-14T00:05:25;100759.50;;;19.73;61.44
13968;BME280;39536;52.198;9.920;2023-06-14T00:07:55;100762.44;;;19.69;61.64
13968;BME280;39536;52.198;9.920;2023-06-14T00:10:22;100772.66;;;19.60;62.31
13968;BME280;39536;52.198;9.920;2023-06-14T00:12:49;100769.91;;;19.62;62.27
13968;BME280;39536;52.198;9.920;2023-06-14T00:15:15;100773.06;;;19.54;62.93
13968;BME280;39536;52.198;9.920;2023-06-14T00:17:42;100776.56;;;19.55;62.81
13968;BME280;39536;52.198;9.920;2023-06-14T00:20:11;100779.84;;;19.58;62.93
13968;BME280;39536;52.198;9.920;2023-06-14T00:22:37;100780.03;;;19.55;62.92
13968;BME280;39536;52.198;9.920;2023-06-14T00:25:04;100785.00;;;19.47;63.31
13968;BME280;39536;52.198;9.920;2023-06-14T00:27:32;100777.06;;;19.47;63.39
13968;BME280;39536;52.198;9.920;2023-06-14T00:29:59;100782.75;;;19.41;63.78
13968;BME280;39536;52.198;9.920;2023-06-14T00:32:25;100775.31;;;19.33;64.14
13968;BME280;39536;52.198;9.920;2023-06-14T00:34:53;100781.38;;;19.35;64.08
13968;BME280;39536;52.198;9.920;2023-06-14T00:37:19;100780.72;;;19.32;64.21
13968;BME280;39536;52.198;9.920;2023-06-14T00:39:45;100777.00;;;19.34;64.25
13968;BME280;39536;52.198;9.920;2023-06-14T00:42:23;100776.69;;;19.26;64.27
13968;BME280;39536;52.198;9.920;2023-06-14T00:44:51;100780.69;;;19.19;64.97
13968;BME280;39536;52.198;9.920;2023-06-14T00:47:18;100767.00;;;19.12;65.00
13968;BME280;39536;52.198;9.920;2023-06-14T00:49:46;100772.06;;;19.15;64.90
13968;BME280;39536;52.198;9.920;2023-06-14T00:52:13;100772.13;;;19.01;66.05
13968;BME280;39536;52.198;9.920;2023-06-14T00:54:40;100781.47;;;19.07;65.30
13968;BME280;39536;52.198;9.920;2023-06-14T00:57:07;100779.41;;;18.98;65.60
13968;BME280;39536;52.198;9.920;2023-06-14T00:59:34;100782.78;;;19.00;65.72
13968;BME280;39536;52.198;9.920;2023-06-14T01:02:02;100780.78;;;19.03;65.76
13968;BME280;39536;52.198;9.920;2023-06-14T01:04:29;100792.22;;;19.04;65.97
13968;BME280;39536;52.198;9.920;2023-06-14T01:07:00;100790.16;;;18.95;66.45
13968;BME280;39536;52.198;9.920;2023-06-14T01:09:37;100796.03;;;18.85;67.10
13968;BME280;39536;52.198;9.920;2023-06-14T01:12:13;100786.69;;;18.80;67.24
13968;BME280;39536;52.198;9.920;2023-06-14T01:14:42;100784.06;;;18.80;67.41
13968;BME280;39536;52.198;9.920;2023-06-14T01:17:10;100785.63;;;18.68;67.71
13968;BME280;39536;52.198;9.920;2023-06-14T01:19:41;100791.09;;;18.65;68.03
13968;BME280;39536;52.198;9.920;2023-06-14T01:22:08;100800.16;;;18.61;68.71
13968;BME280;39536;52.198;9.920;2023-06-14T01:24:36;100792.91;;;18.50;69.31
13968;BME280;39536;52.198;9.920;2023-06-14T01:27:05;100797.91;;;18.55;69.30
13968;BME280;39536;52.198;9.920;2023-06-14T01:29:32;100793.38;;;18.57;69.07
13968;BME280;39536;52.198;9.920;2023-06-14T01:32:01;100796.69;;;18.60;68.83
13968;BME280;39536;52.198;9.920;2023-06-14T01:34:28;100792.81;;;18.52;68.94
13968;BME280;39536;52.198;9.920;2023-06-14T01:36:55;100792.53;;;18.42;69.64
13968;BME280;39536;52.198;9.920;2023-06-14T01:39:22;100790.47;;;18.33;70.34
13968;BME280;39536;52.198;9.920;2023-06-14T01:41:51;100788.56;;;18.20;70.77
13968;BME280;39536;52.198;9.920;2023-06-14T01:44:18;100796.44;;;18.06;72.12
13968;BME280;39536;52.198;9.920;2023-06-14T01:46:46;100798.53;;;18.01;72.49
13968;BME280;39536;52.198;9.920;2023-06-14T01:49:14;100802.06;;;18.00;72.87
13968;BME280;39536;52.198;9.920;2023-06-14T01:51:40;100797.09;;;17.95;73.21
13968;BME280;39536;52.198;9.920;2023-06-14T01:54:07;100795.66;;;17.90;73.78
13968;BME280;39536;52.198;9.920;2023-06-14T01:56:33;100801.56;;;17.79;74.33
13968;BME280;39536;52.198;9.920;2023-06-14T01:59:01;100802.78;;;17.58;75.97
13968;BME280;39536;52.198;9.920;2023-06-14T02:01:28;100803.34;;;17.63;75.93
13968;BME280;39536;52.198;9.920;2023-06-14T02:03:56;100799.66;;;17.51;76.69
13968;BME280;39536;52.198;9.920;2023-06-14T02:06:24;100794.88;;;17.58;76.76
13968;BME280;39536;52.198;9.920;2023-06-14T02:08:50;100795.72;;;17.58;76.91
13968;BME280;39536;52.198;9.920;2023-06-14T02:11:16;100796.16;;;17.50;77.17
13968;BME280;39536;52.198;9.920;2023-06-14T02:13:43;100804.06;;;17.50;77.70
13968;BME280;39536;52.198;9.920;2023-06-14T02:16:11;100800.56;;;17.50;77.72
13968;BME280;39536;52.198;9.920;2023-06-14T02:18:37;100798.72;;;17.52;78.12
13968;BME280;39536;52.198;9.920;2023-06-14T02:21:04;100799.91;;;17.46;78.58
13968;BME280;39536;52.198;9.920;2023-06-14T02:23:30;100796.59;;;17.43;78.63
13968;BME280;39536;52.198;9.920;2023-06-14T02:25:57;100793.88;;;17.44;78.86
13968;BME280;39536;52.198;9.920;2023-06-14T02:28:24;100801.03;;;17.42;79.23
13968;BME280;39536;52.198;9.920;2023-06-14T02:30:50;100792.31;;;17.56;78.47
13968;BME280;39536;52.198;9.920;2023-06-14T02:33:18;100801.34;;;17.52;78.49
13968;BME280;39536;52.198;9.920;2023-06-14T02:35:45;100811.88;;;17.52;78.36
13968;BME280;39536;52.198;9.920;2023-06-14T02:38:12;100803.88;;;17.53;78.49
13968;BME280;39536;52.198;9.920;2023-06-14T02:40:39;100807.59;;;17.65;77.65
13968;BME280;39536;52.198;9.920;2023-06-14T02:43:07;100812.78;;;17.67;77.49
13968;BME280;39536;52.198;9.920;2023-06-14T02:45:33;100818.56;;;17.73;77.24
13968;BME280;39536;52.198;9.920;2023-06-14T02:48:00;100820.22;;;17.60;77.84
13968;BME280;39536;52.198;9.920;2023-06-14T02:50:28;100821.97;;;17.60;77.66
13968;BME280;39536;52.198;9.920;2023-06-14T02:52:55;100821.41;;;17.54;78.31
13968;BME280;39536;52.198;9.920;2023-06-14T02:55:22;100825.16;;;17.35;79.99
13968;BME280;39536;52.198;9.920;2023-06-14T02:57:48;100828.13;;;17.28;81.96
13968;BME280;39536;52.198;9.920;2023-06-14T03:00:15;100828.63;;;17.35;81.37
13968;BME280;39536;52.198;9.920;2023-06-14T03:02:42;100832.53;;;17.28;81.82
13968;BME280;39536;52.198;9.920;2023-06-14T03:05:09;100842.84;;;17.33;81.82
13968;BME280;39536;52.198;9.920;2023-06-14T03:07:37;100836.47;;;17.05;83.75
13968;BME280;39536;52.198;9.920;2023-06-14T03:10:07;100843.06;;;16.80;85.88
13968;BME280;39536;52.198;9.920;2023-06-14T03:12:34;100833.94;;;16.70;87.09
13968;BME280;39536;52.198;9.920;2023-06-14T03:15:02;100846.16;;;16.54;88.78
13968;BME280;39536;52.198;9.920;2023-06-14T03:17:29;100845.69;;;16.63;88.94
13968;BME280;39536;52.198;9.920;2023-06-14T03:19:58;100840.69;;;16.58;89.51
13968;BME280;39536;52.198;9.920;2023-06-14T03:22:25;100844.94;;;16.61;89.85
13968;BME280;39536;52.198;9.920;2023-06-14T03:24:52;100847.69;;;16.75;88.73
13968;BME280;39536;52.198;9.920;2023-06-14T03:27:20;100847.97;;;16.87;87.53
13968;BME280;39536;52.198;9.920;2023-06-14T03:29:47;100851.41;;;17.04;86.61
13968;BME280;39536;52.198;9.920;2023-06-14T03:32:13;100856.69;;;17.20;85.51
13968;BME280;39536;52.198;9.920;2023-06-14T03:34:40;100858.81;;;17.29;84.10
13968;BME280;39536;52.198;9.920;2023-06-14T03:37:06;100852.69;;;17.29;83.40
13968;BME280;39536;52.198;9.920;2023-06-14T03:39:32;100856.91;;;17.31;83.35
13968;BME280;39536;52.198;9.920;2023-06-14T03:42:00;100864.31;;;17.25;82.97
13968;BME280;39536;52.198;9.920;2023-06-14T03:44:27;100867.53;;;17.14;83.76
13968;BME280;39536;52.198;9.920;2023-06-14T03:46:53;100872.72;;;17.16;84.48
13968;BME280;39536;52.198;9.920;2023-06-14T03:49:20;100875.78;;;17.08;84.36
13968;BME280;39536;52.198;9.920;2023-06-14T03:51:46;100875.44;;;17.14;84.67
13968;BME280;39536;52.198;9.920;2023-06-14T03:54:16;100885.47;;;17.07;84.76
13968;BME280;39536;52.198;9.920;2023-06-14T03:56:42;100875.91;;;16.89;85.38
13968;BME280;39536;52.198;9.920;2023-06-14T03:59:10;100881.50;;;16.83;86.59
13968;BME280;39536;52.198;9.920;2023-06-14T04:01:36;100882.34;;;16.83;87.32
13968;BME280;39536;52.198;9.920;2023-06-14T04:04:03;100883.13;;;16.85;87.38
13968;BME280;39536;52.198;9.920;2023-06-14T04:06:29;100889.91;;;16.72;88.19
13968;BME280;39536;52.198;9.920;2023-06-14T04:08:59;100888.66;;;16.63;88.64
13968;BME280;39536;52.198;9.920;2023-06-14T04:11:29;100886.84;;;16.64;89.04
13968;BME280;39536;52.198;9.920;2023-06-14T04:13:55;100882.06;;;16.55;90.11
13968;BME280;39536;52.198;9.920;2023-06-14T04:16:23;100875.25;;;16.51;90.69
13968;BME280;39536;52.198;9.920;2023-06-14T04:18:50;100880.97;;;16.59;90.67
13968;BME280;39536;52.198;9.920;2023-06-14T04:21:17;100880.91;;;16.43;91.97
13968;BME280;39536;52.198;9.920;2023-06-14T04:23:44;100881.72;;;16.45;92.62
13968;BME280;39536;52.198;9.920;2023-06-14T04:26:10;100886.03;;;16.46;92.69
13968;BME280;39536;52.198;9.920;2023-06-14T04:28:37;100886.72;;;16.50;93.33
13968;BME280;39536;52.198;9.920;2023-06-14T04:31:06;100894.28;;;16.56;93.76
13968;BME280;39536;52.198;9.920;2023-06-14T04:33:35;100895.44;;;16.50;94.34
13968;BME280;39536;52.198;9.920;2023-06-14T04:36:08;100897.47;;;16.45;96.46
13968;BME280;39536;52.198;9.920;2023-06-14T04:38:34;100901.34;;;16.55;97.35
13968;BME280;39536;52.198;9.920;2023-06-14T04:41:01;100909.13;;;16.57;97.91
13968;BME280;39536;52.198;9.920;2023-06-14T04:43:27;100903.88;;;16.57;98.56
13968;BME280;39536;52.198;9.920;2023-06-14T04:45:54;100913.41;;;16.42;99.80
13968;BME280;39536;52.198;9.920;2023-06-14T04:48:21;100912.94;;;16.34;100.00
13968;BME280;39536;52.198;9.920;2023-06-14T04:50:49;100912.84;;;16.53;100.00
13968;BME280;39536;52.198;9.920;2023-06-14T04:53:18;100914.94;;;16.63;100.00
13968;BME280;39536;52.198;9.920;2023-06-14T04:55:46;100922.69;;;16.67;100.00
13968;BME280;39536;52.198;9.920;2023-06-14T04:58:13;100918.50;;;16.80;100.00
13968;BME280;39536;52.198;9.920;2023-06-14T05:00:40;100913.34;;;16.94;100.00
13968;BME280;39536;52.198;9.920;2023-06-14T05:03:07;100915.59;;;17.18;100.00
13968;BME280;39536;52.198;9.920;2023-06-14T05:05:34;100914.94;;;17.30;99.43
13968;BME280;39536;52.198;9.920;2023-06-14T05:08:02;100918.88;;;17.39;98.28
13968;BME280;39536;52.198;9.920;2023-06-14T05:10:28;100917.97;;;17.22;98.42
13968;BME280;39536;52.198;9.920;2023-06-14T05:12:55;100931.88;;;16.93;100.00
13968;BME280;39536;52.198;9.920;2023-06-14T05:15:21;100929.28;;;16.91;100.00
13968;BME280;39536;52.198;9.920;2023-06-14T05:17:51;100929.50;;;17.04;100.00
13968;BME280;39536;52.198;9.920;2023-06-14T05:20:21;100931.84;;;17.26;100.00
13968;BME280;39536;52.198;9.920;2023-06-14T05:22:50;100938.38;;;17.50;99.74
13968;BME280;39536;52.198;9.920;2023-06-14T05:25:18;100932.38;;;17.48;99.88
13968;BME280;39536;52.198;9.920;2023-06-14T05:27:47;100938.75;;;17.60;100.00
13968;BME280;39536;52.198;9.920;2023-06-14T05:30:15;100937.03;;;17.75;99.52
13968;BME280;39536;52.198;9.920;2023-06-14T05:32:45;100930.91;;;17.74;99.32
13968;BME280;39536;52.198;9.920;2023-06-14T05:35:11;100934.50;;;17.73;98.59
13968;BME280;39536;52.198;9.920;2023-06-14T05:37:38;100932.66;;;17.91;97.71
13968;BME280;39536;52.198;9.920;2023-06-14T05:40:05;100937.97;;;18.06;96.85
13968;BME280;39536;52.198;9.920;2023-06-14T05:42:34;100939.09;;;18.02;96.16
13968;BME280;39536;52.198;9.920;2023-06-14T05:45:00;100944.00;;;18.08;96.86
13968;BME280;39536;52.198;9.920;2023-06-14T05:47:27;100940.22;;;18.28;97.07
13968;BME280;39536;52.198;9.920;2023-06-14T05:49:53;100942.06;;;18.41;95.42
13968;BME280;39536;52.198;9.920;2023-06-14T05:52:20;100946.88;;;18.49;93.99
13968;BME280;39536;52.198;9.920;2023-06-14T05:54:47;100945.41;;;18.29;93.90
13968;BME280;39536;52.198;9.920;2023-06-14T05:57:14;100947.09;;;18.30;94.48
13968;BME280;39536;52.198;9.920;2023-06-14T05:59:42;100953.38;;;18.28;94.71
13968;BME280;39536;52.198;9.920;2023-06-14T06:02:08;100947.19;;;18.29;93.69
13968;BME280;39536;52.198;9.920;2023-06-14T06:04:35;100952.13;;;18.49;92.95
13968;BME280;39536;52.198;9.920;2023-06-14T06:07:01;100948.94;;;18.58;92.38
13968;BME280;39536;52.198;9.920;2023-06-14T06:09:30;100947.28;;;18.72;91.12
13968;BME280;39536;52.198;9.920;2023-06-14T06:11:56;100947.63;;;18.96;90.71
13968;BME280;39536;52.198;9.920;2023-06-14T06:14:22;100944.78;;;18.99;90.10
13968;BME280;39536;52.198;9.920;2023-06-14T06:16:50;100947.63;;;18.96;91.13
13968;BME280;39536;52.198;9.920;2023-06-14T06:19:18;100942.16;;;18.99;90.78
13968;BME280;39536;52.198;9.920;2023-06-14T06:21:45;100947.44;;;19.13;91.36
13968;BME280;39536;52.198;9.920;2023-06-14T06:24:11;100952.63;;;19.29;91.22
13968;BME280;39536;52.198;9.920;2023-06-14T06:26:38;100951.38;;;19.34;89.29
13968;BME280;39536;52.198;9.920;2023-06-14T06:29:05;100946.75;;;19.38;88.98
13968;BME280;39536;52.198;9.920;2023-06-14T06:31:31;100950.50;;;19.48;88.86
13968;BME280;39536;52.198;9.920;2023-06-14T06:33:59;100956.91;;;19.58;88.43
13968;BME280;39536;52.198;9.920;2023-06-14T06:36:25;100956.97;;;19.86;86.16
13968;BME280;39536;52.198;9.920;2023-06-14T06:39:00;100962.81;;;19.91;84.74
13968;BME280;39536;52.198;9.920;2023-06-14T06:41:31;100966.94;;;19.68;85.20
13968;BME280;39536;52.198;9.920;2023-06-14T06:44:31;100955.50;;;19.67;84.88
13968;BME280;39536;52.198;9.920;2023-06-14T06:47:11;100966.50;;;19.88;85.58
13968;BME280;39536;52.198;9.920;2023-06-14T06:49:44;100971.19;;;19.97;83.53
13968;BME280;39536;52.198;9.920;2023-06-14T06:52:36;100968.38;;;19.86;83.28
13968;BME280;39536;52.198;9.920;2023-06-14T06:55:06;100971.00;;;20.00;82.34
13968;BME280;39536;52.198;9.920;2023-06-14T06:57:34;100976.81;;;20.05;81.85
13968;BME280;39536;52.198;9.920;2023-06-14T07:00:01;100973.97;;;20.36;80.87
13968;BME280;39536;52.198;9.920;2023-06-14T07:02:30;100978.63;;;20.45;79.27
13968;BME280;39536;52.198;9.920;2023-06-14T07:04:58;100985.63;;;20.46;79.52
13968;BME280;39536;52.198;9.920;2023-06-14T07:07:27;100991.53;;;20.76;78.20
13968;BME280;39536;52.198;9.920;2023-06-14T07:09:56;100989.22;;;20.72;76.74
13968;BME280;39536;52.198;9.920;2023-06-14T07:12:31;100995.63;;;20.68;75.07
13968;BME280;39536;52.198;9.920;2023-06-14T07:15:08;100990.97;;;20.59;75.46
13968;BME280;39536;52.198;9.920;2023-06-14T07:17:41;100989.84;;;20.36;76.05
13968;BME280;39536;52.198;9.920;2023-06-14T07:20:10;100984.91;;;20.44;76.49
13968;BME280;39536;52.198;9.920;2023-06-14T07:22:39;100994.78;;;20.55;74.91
13968;BME280;39536;52.198;9.920;2023-06-14T07:25:11;100990.91;;;20.46;74.93
13968;BME280;39536;52.198;9.920;2023-06-14T07:27:42;100993.81;;;20.56;73.66
13968;BME280;39536;52.198;9.920;2023-06-14T07:30:19;101011.66;;;20.79;76.60
13968;BME280;39536;52.198;9.920;2023-06-14T07:32:54;101003.38;;;20.84;73.93
13968;BME280;39536;52.198;9.920;2023-06-14T07:35:25;100999.06;;;21.08;74.03
13968;BME280;39536;52.198;9.920;2023-06-14T07:37:55;100994.91;;;21.30;71.87
13968;BME280;39536;52.198;9.920;2023-06-14T07:40:23;100991.03;;;21.35;72.47
13968;BME280;39536;52.198;9.920;2023-06-14T07:42:50;100994.28;;;21.26;73.13
13968;BME280;39536;52.198;9.920;2023-06-14T07:45:16;101002.44;;;21.23;75.86
13968;BME280;39536;52.198;9.920;2023-06-14T07:47:43;100998.31;;;21.44;73.70
13968;BME280;39536;52.198;9.920;2023-06-14T07:50:10;100998.69;;;21.64;70.61
13968;BME280;39536;52.198;9.920;2023-06-14T07:52:38;100998.91;;;21.61;70.01
13968;BME280;39536;52.198;9.920;2023-06-14T07:55:05;100997.16;;;21.85;67.99
13968;BME280;39536;52.198;9.920;2023-06-14T07:57:32;100993.31;;;21.65;67.58
13968;BME280;39536;52.198;9.920;2023-06-14T07:59:58;100994.91;;;21.55;69.53
13968;BME280;39536;52.198;9.920;2023-06-14T08:02:25;101002.06;;;21.79;66.98
13968;BME280;39536;52.198;9.920;2023-06-14T08:04:51;100995.91;;;21.78;67.60
13968;BME280;39536;52.198;9.920;2023-06-14T08:07:18;101002.38;;;21.87;66.33
13968;BME280;39536;52.198;9.920;2023-06-14T08:09:46;101004.97;;;22.00;66.09
13968;BME280;39536;52.198;9.920;2023-06-14T08:12:13;101010.53;;;22.08;67.84
13968;BME280;39536;52.198;9.920;2023-06-14T08:14:39;101000.03;;;21.82;65.72
13968;BME280;39536;52.198;9.920;2023-06-14T08:17:06;100996.03;;;22.01;65.34
13968;BME280;39536;52.198;9.920;2023-06-14T08:19:32;100998.72;;;22.25;65.95
13968;BME280;39536;52.198;9.920;2023-06-14T08:21:59;101002.66;;;22.43;62.07
13968;BME280;39536;52.198;9.920;2023-06-14T08:24:25;101005.31;;;22.43;62.16
13968;BME280;39536;52.198;9.920;2023-06-14T08:26:54;101009.22;;;22.50;61.41
13968;BME280;39536;52.198;9.920;2023-06-14T08:29:21;101003.72;;;22.76;62.05
13968;BME280;39536;52.198;9.920;2023-06-14T08:31:48;101005.88;;;22.71;59.68
13968;BME280;39536;52.198;9.920;2023-06-14T08:34:14;101008.63;;;22.58;59.48
13968;BME280;39536;52.198;9.920;2023-06-14T08:36:41;101009.75;;;22.31;60.20
13968;BME280;39536;52.198;9.920;2023-06-14T08:39:07;101012.16;;;22.34;62.58
13968;BME280;39536;52.198;9.920;2023-06-14T08:41:35;101002.47;;;22.57;64.12
13968;BME280;39536;52.198;9.920;2023-06-14T08:44:03;101002.88;;;22.75;63.14
13968;BME280;39536;52.198;9.920;2023-06-14T08:46:33;101007.81;;;23.15;60.47
13968;BME280;39536;52.198;9.920;2023-06-14T08:49:01;101001.53;;;23.50;55.31
13968;BME280;39536;52.198;9.920;2023-06-14T08:51:32;100995.97;;;23.53;54.63
13968;BME280;39536;52.198;9.920;2023-06-14T08:54:00;100999.31;;;23.66;54.23
13968;BME280;39536;52.198;9.920;2023-06-14T08:56:28;101005.50;;;23.44;53.22
13968;BME280;39536;52.198;9.920;2023-06-14T08:58:55;101002.13;;;23.20;53.34
13968;BME280;39536;52.198;9.920;2023-06-14T09:01:23;101011.41;;;23.03;53.85
13968;BME280;39536;52.198;9.920;2023-06-14T09:03:50;101009.13;;;23.32;53.71
13968;BME280;39536;52.198;9.920;2023-06-14T09:06:17;101002.50;;;23.49;53.78
13968;BME280;39536;52.198;9.920;2023-06-14T09:08:44;101006.72;;;23.40;53.11
13968;BME280;39536;52.198;9.920;2023-06-14T09:11:12;101005.88;;;23.51;52.86
13968;BME280;39536;52.198;9.920;2023-06-14T09:13:39;101006.25;;;23.46;53.40
13968;BME280;39536;52.198;9.920;2023-06-14T09:16:07;101014.69;;;23.63;52.81
13968;BME280;39536;52.198;9.920;2023-06-14T09:18:36;101017.25;;;23.53;51.51
13968;BME280;39536;52.198;9.920;2023-06-14T09:21:05;101016.84;;;23.58;53.11
13968;BME280;39536;52.198;9.920;2023-06-14T09:23:33;101018.47;;;23.71;53.51
13968;BME280;39536;52.198;9.920;2023-06-14T09:26:06;101018.06;;;23.65;52.38
13968;BME280;39536;52.198;9.920;2023-06-14T09:28:33;101016.44;;;24.07;51.19
13968;BME280;39536;52.198;9.920;2023-06-14T09:31:00;101025.50;;;24.16;53.19
13968;BME280;39536;52.198;9.920;2023-06-14T09:33:26;101019.84;;;23.98;51.89
13968;BME280;39536;52.198;9.920;2023-06-14T09:35:55;101027.38;;;23.93;51.15
13968;BME280;39536;52.198;9.920;2023-06-14T09:38:21;101023.66;;;24.16;50.71
13968;BME280;39536;52.198;9.920;2023-06-14T09:40:49;101020.97;;;24.28;49.49
13968;BME280;39536;52.198;9.920;2023-06-14T09:43:17;101015.16;;;24.34;49.05
13968;BME280;39536;52.198;9.920;2023-06-14T09:45:44;101014.03;;;24.04;49.67
13968;BME280;39536;52.198;9.920;2023-06-14T09:48:12;101011.91;;;24.19;48.51
13968;BME280;39536;52.198;9.920;2023-06-14T09:50:44;101005.88;;;24.17;50.64
13968;BME280;39536;52.198;9.920;2023-06-14T09:53:15;101007.59;;;24.50;47.72
13968;BME280;39536;52.198;9.920;2023-06-14T09:55:42;101004.59;;;24.32;48.81
13968;BME280;39536;52.198;9.920;2023-06-14T09:58:10;101011.38;;;24.36;47.90
13968;BME280;39536;52.198;9.920;2023-06-14T10:00:38;100996.16;;;24.27;48.95
13968;BME280;39536;52.198;9.920;2023-06-14T10:03:08;100997.44;;;24.44;48.98
13968;BME280;39536;52.198;9.920;2023-06-14T10:05:37;101010.31;;;24.60;47.61
13968;BME280;39536;52.198;9.920;2023-06-14T10:08:09;100996.34;;;24.88;46.84
13968;BME280;39536;52.198;9.920;2023-06-14T10:10:39;101001.97;;;24.95;45.25
13968;BME280;39536;52.198;9.920;2023-06-14T10:13:06;100993.41;;;25.13;44.39
13968;BME280;39536;52.198;9.920;2023-06-14T10:15:38;100995.78;;;25.37;44.47
13968;BME280;39536;52.198;9.920;2023-06-14T10:18:13;100992.34;;;25.65;42.57
13968;BME280;39536;52.198;9.920;2023-06-14T10:20:51;100993.34;;;25.24;43.14
13968;BME280;39536;52.198;9.920;2023-06-14T10:23:22;100989.88;;;25.33;43.64
13968;BME280;39536;52.198;9.920;2023-06-14T10:25:54;100995.13;;;25.54;43.92
13968;BME280;39536;52.198;9.920;2023-06-14T10:28:22;100990.69;;;25.74;44.26
13968;BME280;39536;52.198;9.920;2023-06-14T10:31:11;100984.84;;;25.99;43.12
13968;BME280;39536;52.198;9.920;2023-06-14T10:33:48;100985.69;;;26.19;42.46
13968;BME280;39536;52.198;9.920;2023-06-14T10:36:26;100982.47;;;26.25;42.90
13968;BME280;39536;52.198;9.920;2023-06-14T10:38:57;100984.47;;;26.23;41.21
13968;BME280;39536;52.198;9.920;2023-06-14T10:41:26;100976.69;;;26.01;41.63
13968;BME280;39536;52.198;9.920;2023-06-14T10:44:10;100985.56;;;26.11;42.35
13968;BME280;39536;52.198;9.920;2023-06-14T10:46:37;100981.59;;;26.44;43.15
13968;BME280;39536;52.198;9.920;2023-06-14T10:49:03;100971.38;;;26.59;42.79
13968;BME280;39536;52.198;9.920;2023-06-14T10:51:38;100966.88;;;26.50;40.69
13968;BME280;39536;52.198;9.920;2023-06-14T10:54:11;100957.56;;;26.44;40.00
13968;BME280;39536;52.198;9.920;2023-06-14T10:56:45;100960.94;;;26.66;40.61
13968;BME280;39536;52.198;9.920;2023-06-14T10:59:12;100964.34;;;26.58;42.09
13968;BME280;39536;52.198;9.920;2023-06-14T11:01:41;100967.03;;;26.39;40.09
13968;BME280;39536;52.198;9.920;2023-06-14T11:04:13;100962.50;;;26.10;40.93
13968;BME280;39536;52.198;9.920;2023-06-14T11:06:46;100955.88;;;25.95;41.79
13968;BME280;39536;52.198;9.920;2023-06-14T11:09:32;100964.34;;;26.10;43.01
13968;BME280;39536;52.198;9.920;2023-06-14T11:12:09;100953.25;;;26.24;42.94
13968;BME280;39536;52.198;9.920;2023-06-14T11:14:36;100963.34;;;26.40;42.47
13968;BME280;39536;52.198;9.920;2023-06-14T11:17:03;100959.16;;;26.18;41.69
13968;BME280;39536;52.198;9.920;2023-06-14T11:19:30;100959.56;;;25.94;42.29
13968;BME280;39536;52.198;9.920;2023-06-14T11:21:57;100956.31;;;26.00;42.40
13968;BME280;39536;52.198;9.920;2023-06-14T11:24:23;100955.94;;;25.54;42.77
13968;BME280;39536;52.198;9.920;2023-06-14T11:26:49;100960.59;;;25.62;42.96
13968;BME280;39536;52.198;9.920;2023-06-14T11:29:20;100951.81;;;26.10;43.32
13968;BME280;39536;52.198;9.920;2023-06-14T11:31:46;100950.88;;;26.11;43.35
13968;BME280;39536;52.198;9.920;2023-06-14T11:34:13;100950.81;;;25.92;43.74
13968;BME280;39536;52.198;9.920;2023-06-14T11:36:40;100951.91;;;25.70;43.39
13968;BME280;39536;52.198;9.920;2023-06-14T11:39:08;100942.19;;;25.49;43.08
13968;BME280;39536;52.198;9.920;2023-06-14T11:41:36;100945.16;;;25.75;45.06
13968;BME280;39536;52.198;9.920;2023-06-14T11:44:03;100947.47;;;25.99;44.89
13968;BME280;39536;52.198;9.920;2023-06-14T11:46:32;100940.75;;;26.05;42.98
13968;BME280;39536;52.198;9.920;2023-06-14T11:48:59;100935.09;;;26.37;43.87
13968;BME280;39536;52.198;9.920;2023-06-14T11:51:28;100941.44;;;26.26;43.51
13968;BME280;39536;52.198;9.920;2023-06-14T11:53:55;100948.31;;;26.19;42.98
13968;BME280;39536;52.198;9.920;2023-06-14T11:56:22;100942.56;;;26.34;42.37
13968;BME280;39536;52.198;9.920;2023-06-14T11:58:48;100947.34;;;26.11;43.45
13968;BME280;39536;52.198;9.920;2023-06-14T12:01:16;100944.16;;;25.57;44.35
13968;BME280;39536;52.198;9.920;2023-06-14T12:03:48;100937.13;;;25.56;44.58
13968;BME280;39536;52.198;9.920;2023-06-14T12:06:15;100936.97;;;25.48;43.65
13968;BME280;39536;52.198;9.920;2023-06-14T12:08:43;100940.66;;;25.56;43.94
13968;BME280;39536;52.198;9.920;2023-06-14T12:11:11;100931.78;;;25.46;45.09
13968;BME280;39536;52.198;9.920;2023-06-14T12:13:39;100935.19;;;25.68;45.12
13968;BME280;39536;52.198;9.920;2023-06-14T12:16:07;100934.13;;;25.99;43.64
13968;BME280;39536;52.198;9.920;2023-06-14T12:18:34;100933.97;;;26.30;43.42
13968;BME280;39536;52.198;9.920;2023-06-14T12:21:04;100939.19;;;26.22;43.32
13968;BME280;39536;52.198;9.920;2023-06-14T12:23:44;100943.25;;;26.07;42.78
13968;BME280;39536;52.198;9.920;2023-06-14T12:26:13;100932.13;;;26.40;42.31
13968;BME280;39536;52.198;9.920;2023-06-14T12:28:40;100924.66;;;27.01;41.96
13968;BME280;39536;52.198;9.920;2023-06-14T12:31:07;100921.34;;;27.26;42.10
13968;BME280;39536;52.198;9.920;2023-06-14T12:33:33;100914.75;;;27.66;40.02
13968;BME280;39536;52.198;9.920;2023-06-14T12:36:04;100909.94;;;28.23;39.21
13968;BME280;39536;52.198;9.920;2023-06-14T12:38:32;100922.50;;;28.67;38.69
13968;BME280;39536;52.198;9.920;2023-06-14T12:40:59;100925.75;;;28.52;38.53
13968;BME280;39536;52.198;9.920;2023-06-14T12:43:26;100918.41;;;28.37;37.17
13968;BME280;39536;52.198;9.920;2023-06-14T12:45:52;100922.03;;;28.09;37.32
13968;BME280;39536;52.198;9.920;2023-06-14T12:48:19;100918.94;;;27.51;38.98
13968;BME280;39536;52.198;9.920;2023-06-14T12:50:46;100911.88;;;26.94;40.84
13968;BME280;39536;52.198;9.920;2023-06-14T12:53:15;100930.03;;;26.54;40.51
13968;BME280;39536;52.198;9.920;2023-06-14T12:55:42;100924.06;;;26.69;41.91